createdAt,value
2016-11-13T00:00:14.420Z,1018.19
2016-11-13T00:01:23.789Z,1018.15
2016-11-13T00:02:32.783Z,1018.18
2016-11-13T00:03:41.782Z,1018.17
2016-11-13T00:04:50.805Z,1018.18
2016-11-13T00:05:59.809Z,1018.19
2016-11-13T00:07:08.495Z,1018.16
2016-11-13T00:08:17.172Z,1018.19
2016-11-13T00:09:25.864Z,1018.19
2016-11-13T00:10:34.550Z,1018.18
2016-11-13T00:11:43.876Z,1018.19
2016-11-13T00:12:52.871Z,1018.22
2016-11-13T00:14:02.820Z,1018.25
2016-11-13T00:15:12.743Z,1018.28
2016-11-13T00:16:22.041Z,1018.24
2016-11-13T00:17:30.738Z,1018.26
2016-11-13T00:18:39.725Z,1018.25
2016-11-13T00:19:48.408Z,1018.28
2016-11-13T00:20:57.422Z,1018.26
2016-11-13T00:22:06.108Z,1018.23
2016-11-13T00:23:15.129Z,1018.25
2016-11-13T00:24:24.428Z,1018.24
2016-11-13T00:25:34.027Z,1018.21
2016-11-13T00:26:42.718Z,1018.19
2016-11-13T00:27:52.023Z,1018.21
2016-11-13T00:29:01.479Z,1018.19
2016-11-13T00:30:10.482Z,1018.17
2016-11-13T00:31:19.482Z,1018.15
2016-11-13T00:32:28.478Z,1018.2
2016-11-13T00:33:37.789Z,1018.18
2016-11-13T00:34:47.087Z,1018.15
2016-11-13T00:35:56.394Z,1018.08
2016-11-13T00:37:05.087Z,1018.12
2016-11-13T00:38:14.069Z,1018.1
2016-11-13T00:39:23.683Z,1018.05
2016-11-13T00:40:33.760Z,1018.04
2016-11-13T00:41:42.514Z,1018.07
2016-11-13T00:42:52.491Z,1018.11
2016-11-13T00:44:01.216Z,1018.15
2016-11-13T00:45:09.910Z,1018.16
2016-11-13T00:46:19.207Z,1018.17
2016-11-13T00:47:28.507Z,1018.17
2016-11-13T00:48:37.498Z,1018.19
2016-11-13T00:49:46.176Z,1018.18
2016-11-13T00:50:55.485Z,1018.13
2016-11-13T00:52:04.475Z,1018.15
2016-11-13T00:53:13.776Z,1018.13
2016-11-13T00:54:23.371Z,1018.14
2016-11-13T00:55:32.046Z,1018.14
2016-11-13T00:56:41.040Z,1018.13
2016-11-13T00:57:50.031Z,1018.1
2016-11-13T00:58:58.723Z,1018.11
2016-11-13T01:00:08.060Z,1018.12
2016-11-13T01:01:17.373Z,1018.1
2016-11-13T01:02:26.364Z,1018.08
2016-11-13T01:03:35.517Z,1018.08
2016-11-13T01:04:44.508Z,1018.05
2016-11-13T01:05:53.506Z,1018.06
2016-11-13T01:07:02.506Z,1018
2016-11-13T01:08:11.192Z,1018.01
2016-11-13T01:09:20.500Z,1018.01
2016-11-13T01:10:29.797Z,1017.98
2016-11-13T01:11:38.475Z,1017.95
2016-11-13T01:12:47.485Z,1017.98
2016-11-13T01:13:57.082Z,1017.93
2016-11-13T01:15:06.524Z,1017.97
2016-11-13T01:16:15.829Z,1017.96
2016-11-13T01:17:24.522Z,1017.95
2016-11-13T01:18:34.119Z,1017.94
2016-11-13T01:19:42.814Z,1017.94
2016-11-13T01:20:52.150Z,1017.89
2016-11-13T01:22:01.451Z,1017.91
2016-11-13T01:23:10.443Z,1017.86
2016-11-13T01:24:19.444Z,1017.85
2016-11-13T01:25:28.123Z,1017.84
2016-11-13T01:26:36.849Z,1017.82
2016-11-13T01:27:46.146Z,1017.79
2016-11-13T01:28:54.831Z,1017.82
2016-11-13T01:30:03.523Z,1017.82
2016-11-13T01:31:12.531Z,1017.84
2016-11-13T01:32:21.528Z,1017.83
2016-11-13T01:33:31.130Z,1017.88
2016-11-13T01:34:40.116Z,1017.85
2016-11-13T01:35:49.409Z,1017.88
2016-11-13T01:36:58.699Z,1017.86
2016-11-13T01:38:07.743Z,1017.86
2016-11-13T01:39:16.419Z,1017.88
2016-11-13T01:40:25.411Z,1017.84
2016-11-13T01:41:34.726Z,1017.91
2016-11-13T01:42:44.047Z,1017.91
2016-11-13T01:43:53.798Z,1017.87
2016-11-13T01:45:02.486Z,1017.88
2016-11-13T01:46:11.179Z,1017.92
2016-11-13T01:47:20.790Z,1017.92
2016-11-13T01:48:29.786Z,1017.93
2016-11-13T01:49:38.934Z,1017.91
2016-11-13T01:50:47.977Z,1017.89
2016-11-13T01:51:56.658Z,1017.88
2016-11-13T01:53:05.958Z,1017.87
2016-11-13T01:54:15.903Z,1017.89
2016-11-13T01:55:24.896Z,1017.83
2016-11-13T01:56:33.882Z,1017.85
2016-11-13T01:57:43.482Z,1017.83
2016-11-13T01:58:52.159Z,1017.83
2016-11-13T02:00:00.835Z,1017.81
2016-11-13T02:01:10.128Z,1017.81
2016-11-13T02:02:19.115Z,1017.82
2016-11-13T02:03:28.097Z,1017.78
2016-11-13T02:04:37.092Z,1017.8
2016-11-13T02:05:46.104Z,1017.8
2016-11-13T02:06:55.556Z,1017.8
2016-11-13T02:08:04.239Z,1017.81
2016-11-13T02:09:13.238Z,1017.89
2016-11-13T02:10:21.957Z,1017.93
2016-11-13T02:11:31.553Z,1017.89
2016-11-13T02:12:41.019Z,1017.95
2016-11-13T02:13:49.718Z,1017.96
2016-11-13T02:14:58.404Z,1017.9
2016-11-13T02:16:07.409Z,1017.87
2016-11-13T02:17:16.387Z,1017.84
2016-11-13T02:18:25.715Z,1017.85
2016-11-13T02:19:35.015Z,1017.82
2016-11-13T02:20:43.706Z,1017.82
2016-11-13T02:21:53.006Z,1017.86
2016-11-13T02:23:02.011Z,1017.87
2016-11-13T02:24:11.360Z,1017.97
2016-11-13T02:25:20.350Z,1017.99
2016-11-13T02:26:29.040Z,1017.96
2016-11-13T02:27:38.049Z,1017.93
2016-11-13T02:28:47.038Z,1017.98
2016-11-13T02:29:55.877Z,1017.93
2016-11-13T02:31:04.563Z,1017.93
2016-11-13T02:32:13.247Z,1017.91
2016-11-13T02:33:22.538Z,1017.9
2016-11-13T02:34:31.836Z,1017.91
2016-11-13T02:35:41.141Z,1017.92
2016-11-13T02:36:50.128Z,1017.93
2016-11-13T02:37:59.154Z,1017.95
2016-11-13T02:39:08.222Z,1018.01
2016-11-13T02:40:17.206Z,1018.03
2016-11-13T02:41:26.517Z,1018.07
2016-11-13T02:42:35.496Z,1018.07
2016-11-13T02:43:44.205Z,1018.05
2016-11-13T02:44:52.915Z,1018.06
2016-11-13T02:46:02.217Z,1018.07
2016-11-13T02:47:11.203Z,1018.09
2016-11-13T02:48:20.177Z,1018.09
2016-11-13T02:49:28.891Z,1018.09
2016-11-13T02:50:37.573Z,1018.09
2016-11-13T02:51:46.878Z,1018.12
2016-11-13T02:52:56.220Z,1018.13
2016-11-13T02:54:05.207Z,1018.11
2016-11-13T02:55:14.223Z,1018.17
2016-11-13T02:56:23.524Z,1018.14
2016-11-13T02:57:32.827Z,1018.15
2016-11-13T02:58:42.109Z,1018.12
2016-11-13T02:59:51.100Z,1018.14
2016-11-13T03:01:00.166Z,1018.13
2016-11-13T03:02:09.199Z,1018.13
2016-11-13T03:03:18.192Z,1018.14
2016-11-13T03:04:27.802Z,1018.12
2016-11-13T03:05:37.086Z,1018.11
2016-11-13T03:06:47.011Z,1018.1
2016-11-13T03:07:55.694Z,1018.16
2016-11-13T03:09:05.001Z,1018.11
2016-11-13T03:10:13.980Z,1018.12
2016-11-13T03:11:22.968Z,1018.12
2016-11-13T03:12:31.957Z,1018.11
2016-11-13T03:13:41.562Z,1018.13
2016-11-13T03:14:50.250Z,1018.16
2016-11-13T03:15:59.236Z,1018.16
2016-11-13T03:17:08.855Z,1018.18
2016-11-13T03:18:18.149Z,1018.2
2016-11-13T03:19:26.835Z,1018.23
2016-11-13T03:20:35.521Z,1018.29
2016-11-13T03:21:44.812Z,1018.29
2016-11-13T03:22:53.533Z,1018.28
2016-11-13T03:24:02.859Z,1018.29
2016-11-13T03:25:11.855Z,1018.28
2016-11-13T03:26:20.554Z,1018.27
2016-11-13T03:27:30.141Z,1018.28
2016-11-13T03:28:39.148Z,1018.23
2016-11-13T03:29:47.841Z,1018.24
2016-11-13T03:30:56.852Z,1018.25
2016-11-13T03:32:05.526Z,1018.25
2016-11-13T03:33:14.588Z,1018.29
2016-11-13T03:34:23.280Z,1018.24
2016-11-13T03:35:32.272Z,1018.23
2016-11-13T03:36:40.984Z,1018.24
2016-11-13T03:37:49.983Z,1018.23
2016-11-13T03:38:59.573Z,1018.18
2016-11-13T03:40:09.180Z,1018.18
2016-11-13T03:41:17.864Z,1018.2
2016-11-13T03:42:27.173Z,1018.18
2016-11-13T03:43:36.161Z,1018.18
2016-11-13T03:44:45.002Z,1018.13
2016-11-13T03:45:53.689Z,1018.13
2016-11-13T03:47:02.682Z,1018.14
2016-11-13T03:48:11.981Z,1018.11
2016-11-13T03:49:21.273Z,1018.15
2016-11-13T03:50:30.570Z,1018.21
2016-11-13T03:51:39.259Z,1018.19
2016-11-13T03:52:48.252Z,1018.2
2016-11-13T03:53:57.551Z,1018.24
2016-11-13T03:55:06.239Z,1018.22
2016-11-13T03:56:15.528Z,1018.21
2016-11-13T03:57:24.519Z,1018.18
2016-11-13T03:58:33.804Z,1018.2
2016-11-13T03:59:42.820Z,1018.19
2016-11-13T04:00:52.123Z,1018.23
2016-11-13T04:02:01.717Z,1018.19
2016-11-13T04:03:11.318Z,1018.23
2016-11-13T04:04:20.325Z,1018.22
2016-11-13T04:05:29.319Z,1018.22
2016-11-13T04:06:38.307Z,1018.19
2016-11-13T04:07:47.604Z,1018.22
2016-11-13T04:08:56.284Z,1018.25
2016-11-13T04:10:05.580Z,1018.22
2016-11-13T04:11:14.578Z,1018.28
2016-11-13T04:12:23.249Z,1018.28
2016-11-13T04:13:31.937Z,1018.29
2016-11-13T04:14:40.630Z,1018.34
2016-11-13T04:15:49.328Z,1018.38
2016-11-13T04:16:58.012Z,1018.34
2016-11-13T04:18:07.342Z,1018.37
2016-11-13T04:19:16.945Z,1018.38
2016-11-13T04:20:26.257Z,1018.38
2016-11-13T04:21:34.947Z,1018.39
2016-11-13T04:22:43.639Z,1018.41
2016-11-13T04:23:53.251Z,1018.43
2016-11-13T04:25:02.587Z,1018.44
2016-11-13T04:26:11.583Z,1018.46
2016-11-13T04:27:20.283Z,1018.48
2016-11-13T04:28:29.579Z,1018.47
2016-11-13T04:29:38.288Z,1018.47
2016-11-13T04:30:47.477Z,1018.49
2016-11-13T04:31:56.469Z,1018.44
2016-11-13T04:33:05.458Z,1018.45
2016-11-13T04:34:14.454Z,1018.45
2016-11-13T04:35:23.749Z,1018.43
2016-11-13T04:36:32.732Z,1018.41
2016-11-13T04:37:41.465Z,1018.43
2016-11-13T04:38:50.782Z,1018.47
2016-11-13T04:40:00.074Z,1018.41
2016-11-13T04:41:08.755Z,1018.42
2016-11-13T04:42:17.589Z,1018.42
2016-11-13T04:43:26.895Z,1018.46
2016-11-13T04:44:35.881Z,1018.45
2016-11-13T04:45:45.214Z,1018.39
2016-11-13T04:46:54.503Z,1018.43
2016-11-13T04:48:03.811Z,1018.42
2016-11-13T04:49:12.802Z,1018.47
2016-11-13T04:50:22.131Z,1018.45
2016-11-13T04:51:31.124Z,1018.43
2016-11-13T04:52:40.445Z,1018.43
2016-11-13T04:53:50.047Z,1018.4
2016-11-13T04:54:59.350Z,1018.43
2016-11-13T04:56:08.962Z,1018.4
2016-11-13T04:57:18.580Z,1018.38
2016-11-13T04:58:27.264Z,1018.39
2016-11-13T04:59:36.289Z,1018.35
2016-11-13T05:00:44.973Z,1018.36
2016-11-13T05:01:53.998Z,1018.35
2016-11-13T05:03:03.599Z,1018.37
2016-11-13T05:04:12.894Z,1018.33
2016-11-13T05:05:22.545Z,1018.38
2016-11-13T05:06:31.223Z,1018.35
2016-11-13T05:07:39.914Z,1018.38
2016-11-13T05:08:48.913Z,1018.37
2016-11-13T05:09:57.927Z,1018.36
2016-11-13T05:11:07.532Z,1018.37
2016-11-13T05:12:16.823Z,1018.36
2016-11-13T05:13:26.108Z,1018.37
2016-11-13T05:14:34.792Z,1018.34
2016-11-13T05:15:43.475Z,1018.39
2016-11-13T05:16:52.774Z,1018.38
2016-11-13T05:18:02.076Z,1018.34
2016-11-13T05:19:11.684Z,1018.38
2016-11-13T05:20:20.989Z,1018.43
2016-11-13T05:21:29.974Z,1018.43
2016-11-13T05:22:39.279Z,1018.42
2016-11-13T05:23:48.274Z,1018.43
2016-11-13T05:24:57.885Z,1018.47
2016-11-13T05:26:07.187Z,1018.46
2016-11-13T05:27:16.480Z,1018.46
2016-11-13T05:28:25.646Z,1018.51
2016-11-13T05:29:34.653Z,1018.58
2016-11-13T05:30:43.974Z,1018.56
2016-11-13T05:31:52.666Z,1018.58
2016-11-13T05:33:01.958Z,1018.66
2016-11-13T05:34:11.400Z,1018.7
2016-11-13T05:35:20.996Z,1018.71
2016-11-13T05:36:30.290Z,1018.75
2016-11-13T05:37:39.585Z,1018.77
2016-11-13T05:38:48.572Z,1018.75
2016-11-13T05:39:57.563Z,1018.77
2016-11-13T05:41:07.194Z,1018.79
2016-11-13T05:42:16.808Z,1018.79
2016-11-13T05:43:25.485Z,1018.79
2016-11-13T05:44:34.781Z,1018.81
2016-11-13T05:45:43.467Z,1018.8
2016-11-13T05:46:52.762Z,1018.81
2016-11-13T05:48:02.364Z,1018.79
2016-11-13T05:49:11.048Z,1018.8
2016-11-13T05:50:20.040Z,1018.82
2016-11-13T05:51:29.951Z,1018.82
2016-11-13T05:52:39.246Z,1018.83
2016-11-13T05:53:48.549Z,1018.8
2016-11-13T05:54:57.238Z,1018.79
2016-11-13T05:56:06.546Z,1018.81
2016-11-13T05:57:15.909Z,1018.77
2016-11-13T05:58:25.862Z,1018.81
2016-11-13T05:59:35.179Z,1018.8
2016-11-13T06:00:44.232Z,1018.75
2016-11-13T06:01:53.224Z,1018.79
2016-11-13T06:03:02.542Z,1018.76
2016-11-13T06:04:11.552Z,1018.78
2016-11-13T06:05:20.319Z,1018.78
2016-11-13T06:06:30.234Z,1018.82
2016-11-13T06:07:39.224Z,1018.77
2016-11-13T06:08:48.211Z,1018.74
2016-11-13T06:09:56.910Z,1018.73
2016-11-13T06:11:05.988Z,1018.75
2016-11-13T06:12:14.983Z,1018.74
2016-11-13T06:13:23.670Z,1018.73
2016-11-13T06:14:32.675Z,1018.73
2016-11-13T06:15:41.671Z,1018.78
2016-11-13T06:16:50.362Z,1018.81
2016-11-13T06:17:59.050Z,1018.82
2016-11-13T06:19:07.742Z,1018.81
2016-11-13T06:20:16.584Z,1018.77
2016-11-13T06:21:26.190Z,1018.77
2016-11-13T06:22:35.497Z,1018.73
2016-11-13T06:23:44.210Z,1018.79
2016-11-13T06:24:53.250Z,1018.78
2016-11-13T06:26:01.935Z,1018.75
2016-11-13T06:27:10.613Z,1018.77
2016-11-13T06:28:19.292Z,1018.81
2016-11-13T06:29:28.031Z,1018.85
2016-11-13T06:30:36.717Z,1018.89
2016-11-13T06:31:46.020Z,1018.88
2016-11-13T06:32:55.014Z,1018.86
2016-11-13T06:34:04.079Z,1018.89
2016-11-13T06:35:13.076Z,1018.88
2016-11-13T06:36:21.768Z,1018.88
2016-11-13T06:37:31.668Z,1018.91
2016-11-13T06:38:40.678Z,1018.88
2016-11-13T06:39:49.390Z,1018.93
2016-11-13T06:40:58.100Z,1018.97
2016-11-13T06:42:07.403Z,1018.99
2016-11-13T06:43:16.137Z,1019.02
2016-11-13T06:44:24.828Z,1019.04
2016-11-13T06:45:34.136Z,1019.05
2016-11-13T06:46:42.824Z,1019.07
2016-11-13T06:47:51.827Z,1019.07
2016-11-13T06:49:00.869Z,1019.12
2016-11-13T06:50:10.215Z,1019.12
2016-11-13T06:51:19.554Z,1019.15
2016-11-13T06:52:28.276Z,1019.13
2016-11-13T06:53:37.333Z,1019.16
2016-11-13T06:54:46.390Z,1019.18
2016-11-13T06:55:55.217Z,1019.21
2016-11-13T06:57:03.956Z,1019.16
2016-11-13T06:58:13.006Z,1019.16
2016-11-13T06:59:21.742Z,1019.15
2016-11-13T07:00:30.875Z,1019.19
2016-11-13T07:01:40.074Z,1019.2
2016-11-13T07:02:49.536Z,1019.21
2016-11-13T07:03:58.528Z,1019.21
2016-11-13T07:05:07.556Z,1019.18
2016-11-13T07:06:16.552Z,1019.17
2016-11-13T07:07:25.572Z,1019.21
2016-11-13T07:08:34.560Z,1019.23
2016-11-13T07:09:43.245Z,1019.25
2016-11-13T07:10:52.548Z,1019.28
2016-11-13T07:12:01.840Z,1019.36
2016-11-13T07:13:11.150Z,1019.33
2016-11-13T07:14:20.155Z,1019.38
2016-11-13T07:15:29.189Z,1019.36
2016-11-13T07:16:37.879Z,1019.4
2016-11-13T07:17:47.173Z,1019.39
2016-11-13T07:18:56.189Z,1019.38
2016-11-13T07:20:05.186Z,1019.42
2016-11-13T07:21:14.482Z,1019.45
2016-11-13T07:22:23.471Z,1019.42
2016-11-13T07:23:32.453Z,1019.45
2016-11-13T07:24:41.768Z,1019.45
2016-11-13T07:25:50.764Z,1019.46
2016-11-13T07:27:00.060Z,1019.51
2016-11-13T07:28:09.362Z,1019.5
2016-11-13T07:29:19.315Z,1019.5
2016-11-13T07:30:28.308Z,1019.54
2016-11-13T07:31:37.012Z,1019.59
2016-11-13T07:32:45.689Z,1019.6
2016-11-13T07:33:54.672Z,1019.67
2016-11-13T07:35:04.276Z,1019.65
2016-11-13T07:36:13.579Z,1019.68
2016-11-13T07:37:22.584Z,1019.66
2016-11-13T07:38:31.890Z,1019.74
2016-11-13T07:39:40.575Z,1019.73
2016-11-13T07:40:49.574Z,1019.79
2016-11-13T07:41:58.584Z,1019.78
2016-11-13T07:43:07.884Z,1019.82
2016-11-13T07:44:16.878Z,1019.81
2016-11-13T07:45:26.180Z,1019.79
2016-11-13T07:46:35.528Z,1019.8
2016-11-13T07:47:45.137Z,1019.81
2016-11-13T07:48:54.135Z,1019.83
2016-11-13T07:50:02.822Z,1019.81
2016-11-13T07:51:11.822Z,1019.83
2016-11-13T07:52:20.908Z,1019.82
2016-11-13T07:53:29.622Z,1019.85
2016-11-13T07:54:38.319Z,1019.8
2016-11-13T07:55:47.624Z,1019.85
2016-11-13T07:56:56.619Z,1019.84
2016-11-13T07:58:05.975Z,1019.8
2016-11-13T07:59:14.971Z,1019.85
2016-11-13T08:00:23.662Z,1019.84
2016-11-13T08:01:32.679Z,1019.83
2016-11-13T08:02:41.666Z,1019.84
2016-11-13T08:03:50.693Z,1019.88
2016-11-13T08:04:59.391Z,1019.89
2016-11-13T08:06:08.414Z,1019.9
2016-11-13T08:07:18.034Z,1019.91
2016-11-13T08:08:27.650Z,1019.91
2016-11-13T08:09:36.639Z,1019.9
2016-11-13T08:10:45.640Z,1019.87
2016-11-13T08:11:54.330Z,1019.9
2016-11-13T08:13:03.330Z,1019.88
2016-11-13T08:14:12.628Z,1019.91
2016-11-13T08:15:21.630Z,1019.91
2016-11-13T08:16:30.358Z,1019.94
2016-11-13T08:17:39.041Z,1019.95
2016-11-13T08:18:48.042Z,1019.97
2016-11-13T08:19:57.035Z,1019.98
2016-11-13T08:21:06.179Z,1019.99
2016-11-13T08:22:15.174Z,1020.03
2016-11-13T08:23:24.168Z,1020.03
2016-11-13T08:24:32.883Z,1020.02
2016-11-13T08:25:41.918Z,1020.04
2016-11-13T08:26:51.254Z,1020.06
2016-11-13T08:27:59.929Z,1020.07
2016-11-13T08:29:08.613Z,1020.08
2016-11-13T08:30:18.226Z,1020.09
2016-11-13T08:31:27.214Z,1020.11
2016-11-13T08:32:37.142Z,1020.14
2016-11-13T08:33:46.450Z,1020.16
2016-11-13T08:34:55.154Z,1020.13
2016-11-13T08:36:04.247Z,1020.13
2016-11-13T08:37:13.253Z,1020.17
2016-11-13T08:38:22.030Z,1020.15
2016-11-13T08:39:31.094Z,1020.14
2016-11-13T08:40:39.780Z,1020.18
2016-11-13T08:41:49.074Z,1020.18
2016-11-13T08:42:58.152Z,1020.11
2016-11-13T08:44:07.146Z,1020.13
2016-11-13T08:45:16.471Z,1020.08
2016-11-13T08:46:25.289Z,1020.09
2016-11-13T08:47:34.395Z,1020.1
2016-11-13T08:48:43.712Z,1020.12
2016-11-13T08:49:53.366Z,1020.12
2016-11-13T08:51:02.382Z,1020.12
2016-11-13T08:52:11.075Z,1020.07
2016-11-13T08:53:20.083Z,1020.12
2016-11-13T08:54:29.193Z,1020.09
2016-11-13T08:55:38.518Z,1020.08
2016-11-13T08:56:47.813Z,1020.07
2016-11-13T08:57:57.671Z,1020.09
2016-11-13T08:59:06.817Z,1020.1
2016-11-13T09:00:15.851Z,1020.08
2016-11-13T09:01:24.621Z,1020.12
2016-11-13T09:02:33.312Z,1020.1
2016-11-13T09:03:43.072Z,1020.11
2016-11-13T09:04:51.778Z,1020.12
2016-11-13T09:06:01.500Z,1020.11
2016-11-13T09:07:10.898Z,1020.14
2016-11-13T09:08:19.589Z,1020.11
2016-11-13T09:09:29.880Z,1020.09
2016-11-13T09:10:38.877Z,1020.14
2016-11-13T09:11:47.566Z,1020.15
2016-11-13T09:12:56.561Z,1020.19
2016-11-13T09:14:05.253Z,1020.14
2016-11-13T09:15:13.933Z,1020.14
2016-11-13T09:16:23.597Z,1020.15
2016-11-13T09:17:32.312Z,1020.17
2016-11-13T09:18:41.366Z,1020.19
2016-11-13T09:19:50.363Z,1020.19
2016-11-13T09:20:59.059Z,1020.16
2016-11-13T09:22:08.072Z,1020.15
2016-11-13T09:23:17.359Z,1020.22
2016-11-13T09:24:26.365Z,1020.21
2016-11-13T09:25:35.373Z,1020.21
2016-11-13T09:26:44.057Z,1020.17
2016-11-13T09:27:53.064Z,1020.21
2016-11-13T09:29:02.081Z,1020.17
2016-11-13T09:30:11.388Z,1020.22
2016-11-13T09:31:20.688Z,1020.15
2016-11-13T09:32:29.373Z,1020.17
2016-11-13T09:33:38.375Z,1020.16
2016-11-13T09:34:47.682Z,1020.2
2016-11-13T09:35:56.680Z,1020.16
2016-11-13T09:37:05.973Z,1020.18
2016-11-13T09:38:14.669Z,1020.23
2016-11-13T09:39:23.357Z,1020.28
2016-11-13T09:40:32.353Z,1020.22
2016-11-13T09:41:41.648Z,1020.25
2016-11-13T09:42:50.662Z,1020.25
2016-11-13T09:44:00.319Z,1020.28
2016-11-13T09:45:09.328Z,1020.27
2016-11-13T09:46:18.655Z,1020.29
2016-11-13T09:47:27.642Z,1020.32
2016-11-13T09:48:37.250Z,1020.33
2016-11-13T09:49:46.251Z,1020.37
2016-11-13T09:50:55.585Z,1020.37
2016-11-13T09:52:04.295Z,1020.33
2016-11-13T09:53:13.013Z,1020.38
2016-11-13T09:54:22.009Z,1020.42
2016-11-13T09:55:30.701Z,1020.38
2016-11-13T09:56:39.392Z,1020.41
2016-11-13T09:57:48.700Z,1020.42
2016-11-13T09:58:57.691Z,1020.42
2016-11-13T10:00:06.701Z,1020.37
2016-11-13T10:01:15.398Z,1020.43
2016-11-13T10:02:24.732Z,1020.41
2016-11-13T10:03:33.738Z,1020.42
2016-11-13T10:04:42.433Z,1020.46
2016-11-13T10:05:51.747Z,1020.45
2016-11-13T10:07:00.439Z,1020.43
2016-11-13T10:08:09.124Z,1020.45
2016-11-13T10:09:18.128Z,1020.44
2016-11-13T10:10:27.135Z,1020.48
2016-11-13T10:11:36.161Z,1020.48
2016-11-13T10:12:45.452Z,1020.47
2016-11-13T10:13:55.061Z,1020.48
2016-11-13T10:15:04.079Z,1020.52
2016-11-13T10:16:13.386Z,1020.51
2016-11-13T10:17:22.380Z,1020.49
2016-11-13T10:18:31.994Z,1020.52
2016-11-13T10:19:40.990Z,1020.5
2016-11-13T10:20:50.009Z,1020.42
2016-11-13T10:21:59.680Z,1020.48
2016-11-13T10:23:08.989Z,1020.42
2016-11-13T10:24:18.315Z,1020.42
2016-11-13T10:25:27.924Z,1020.41
2016-11-13T10:26:36.615Z,1020.43
2016-11-13T10:27:45.301Z,1020.42
2016-11-13T10:28:54.621Z,1020.41
2016-11-13T10:30:03.931Z,1020.44
2016-11-13T10:31:12.623Z,1020.42
2016-11-13T10:32:21.979Z,1020.47
2016-11-13T10:33:31.278Z,1020.41
2016-11-13T10:34:39.971Z,1020.38
2016-11-13T10:35:48.965Z,1020.36
2016-11-13T10:36:58.276Z,1020.37
2016-11-13T10:38:06.962Z,1020.43
2016-11-13T10:39:15.972Z,1020.39
2016-11-13T10:40:24.957Z,1020.41
2016-11-13T10:41:34.283Z,1020.41
2016-11-13T10:42:43.273Z,1020.37
2016-11-13T10:43:52.604Z,1020.35
2016-11-13T10:45:01.598Z,1020.36
2016-11-13T10:46:10.295Z,1020.31
2016-11-13T10:47:19.601Z,1020.26
2016-11-13T10:48:28.600Z,1020.25
2016-11-13T10:49:37.310Z,1020.27
2016-11-13T10:50:46.617Z,1020.28
2016-11-13T10:51:55.601Z,1020.28
2016-11-13T10:53:04.603Z,1020.28
2016-11-13T10:54:13.297Z,1020.3
2016-11-13T10:55:22.003Z,1020.26
2016-11-13T10:56:32.135Z,1020.25
2016-11-13T10:57:41.412Z,1020.22
2016-11-13T10:58:50.496Z,1020.2
2016-11-13T11:00:00.050Z,1020.22
2016-11-13T11:01:09.069Z,1020.19
2016-11-13T11:02:17.749Z,1020.28
2016-11-13T11:03:26.440Z,1020.19
2016-11-13T11:04:35.584Z,1020.26
2016-11-13T11:05:44.902Z,1020.22
2016-11-13T11:06:54.005Z,1020.26
2016-11-13T11:08:03.676Z,1020.28
2016-11-13T11:09:13.247Z,1020.3
2016-11-13T11:10:22.266Z,1020.34
2016-11-13T11:11:31.116Z,1020.38
2016-11-13T11:12:40.624Z,1020.31
2016-11-13T11:13:50.413Z,1020.29
2016-11-13T11:14:59.747Z,1020.3
2016-11-13T11:16:08.873Z,1020.3
2016-11-13T11:17:17.896Z,1020.29
2016-11-13T11:18:26.700Z,1020.29
2016-11-13T11:19:35.687Z,1020.19
2016-11-13T11:20:45.078Z,1020.15
2016-11-13T11:21:55.067Z,1020.11
2016-11-13T11:23:04.510Z,1020.15
2016-11-13T11:24:13.203Z,1020.13
2016-11-13T11:25:22.579Z,1020.06
2016-11-13T11:26:31.264Z,1020.05
2016-11-13T11:27:40.618Z,1020.11
2016-11-13T11:28:49.936Z,1020.09
2016-11-13T11:29:58.943Z,1020.1
2016-11-13T11:31:07.962Z,1020.11
2016-11-13T11:32:16.686Z,1020.12
2016-11-13T11:33:25.380Z,1020.1
2016-11-13T11:34:34.095Z,1020.09
2016-11-13T11:35:43.158Z,1020.1
2016-11-13T11:36:52.473Z,1020.11
2016-11-13T11:38:01.465Z,1020.1
2016-11-13T11:39:10.459Z,1020.13
2016-11-13T11:40:19.158Z,1020.14
2016-11-13T11:41:28.464Z,1020.18
2016-11-13T11:42:37.532Z,1020.16
2016-11-13T11:43:46.589Z,1020.13
2016-11-13T11:44:55.603Z,1020.1
2016-11-13T11:46:04.932Z,1020.12
2016-11-13T11:47:13.939Z,1020.15
2016-11-13T11:48:23.427Z,1020.18
2016-11-13T11:49:33.340Z,1020.19
2016-11-13T11:50:42.017Z,1020.19
2016-11-13T11:51:51.011Z,1020.13
2016-11-13T11:53:00.343Z,1020.2
2016-11-13T11:54:09.376Z,1020.2
2016-11-13T11:55:18.389Z,1020.19
2016-11-13T11:56:27.708Z,1020.2
2016-11-13T11:57:36.401Z,1020.19
2016-11-13T11:58:46.023Z,1020.22
2016-11-13T11:59:55.511Z,1020.18
2016-11-13T12:01:05.466Z,1020.2
2016-11-13T12:02:14.480Z,1020.16
2016-11-13T12:03:23.495Z,1020.17
2016-11-13T12:04:32.800Z,1020.18
2016-11-13T12:05:42.105Z,1020.17
2016-11-13T12:06:51.108Z,1020.18
2016-11-13T12:07:59.809Z,1020.18
2016-11-13T12:09:08.818Z,1020.15
2016-11-13T12:10:17.509Z,1020.2
2016-11-13T12:11:26.523Z,1020.16
2016-11-13T12:12:35.283Z,1020.18
2016-11-13T12:13:44.594Z,1020.17
2016-11-13T12:14:53.614Z,1020.15
2016-11-13T12:16:03.240Z,1020.17
2016-11-13T12:17:12.535Z,1020.15
2016-11-13T12:18:21.222Z,1020.21
2016-11-13T12:19:30.221Z,1020.19
2016-11-13T12:20:38.957Z,1020.21
2016-11-13T12:21:48.292Z,1020.22
2016-11-13T12:22:57.905Z,1020.26
2016-11-13T12:24:06.902Z,1020.28
2016-11-13T12:25:15.893Z,1020.3
2016-11-13T12:26:24.892Z,1020.26
2016-11-13T12:27:33.900Z,1020.31
2016-11-13T12:28:43.064Z,1020.32
2016-11-13T12:29:52.668Z,1020.33
2016-11-13T12:31:01.992Z,1020.32
2016-11-13T12:32:11.660Z,1020.3
2016-11-13T12:33:20.645Z,1020.3
2016-11-13T12:34:29.932Z,1020.25
2016-11-13T12:35:38.931Z,1020.33
2016-11-13T12:36:47.627Z,1020.25
2016-11-13T12:37:56.644Z,1020.31
2016-11-13T12:39:05.334Z,1020.27
2016-11-13T12:40:14.039Z,1020.27
2016-11-13T12:41:23.357Z,1020.27
2016-11-13T12:42:32.657Z,1020.29
2016-11-13T12:43:41.367Z,1020.28
2016-11-13T12:44:50.053Z,1020.27
2016-11-13T12:45:59.348Z,1020.28
2016-11-13T12:47:08.364Z,1020.29
2016-11-13T12:48:17.384Z,1020.28
2016-11-13T12:49:26.380Z,1020.33
2016-11-13T12:50:36.036Z,1020.27
2016-11-13T12:51:45.098Z,1020.3
2016-11-13T12:52:53.779Z,1020.35
2016-11-13T12:54:03.125Z,1020.36
2016-11-13T12:55:12.132Z,1020.36
2016-11-13T12:56:21.133Z,1020.38
2016-11-13T12:57:30.140Z,1020.39
2016-11-13T12:58:38.842Z,1020.4
2016-11-13T12:59:47.836Z,1020.39
2016-11-13T13:00:56.841Z,1020.43
2016-11-13T13:02:05.550Z,1020.41
2016-11-13T13:03:14.561Z,1020.39
2016-11-13T13:04:23.562Z,1020.47
2016-11-13T13:05:32.602Z,1020.45
2016-11-13T13:06:41.307Z,1020.46
2016-11-13T13:07:50.326Z,1020.48
2016-11-13T13:08:59.189Z,1020.5
2016-11-13T13:10:08.201Z,1020.46
2016-11-13T13:11:17.189Z,1020.48
2016-11-13T13:12:25.937Z,1020.48
2016-11-13T13:13:36.793Z,1020.46
2016-11-13T13:14:45.647Z,1020.46
2016-11-13T13:15:54.754Z,1020.5
2016-11-13T13:17:03.791Z,1020.49
2016-11-13T13:18:12.804Z,1020.49
2016-11-13T13:19:21.544Z,1020.51
2016-11-13T13:20:30.413Z,1020.55
2016-11-13T13:21:39.111Z,1020.54
2016-11-13T13:22:48.124Z,1020.56
2016-11-13T13:23:56.830Z,1020.57
2016-11-13T13:25:05.531Z,1020.61
2016-11-13T13:26:14.865Z,1020.57
2016-11-13T13:27:23.868Z,1020.61
2016-11-13T13:28:32.570Z,1020.62
2016-11-13T13:29:42.189Z,1020.63
2016-11-13T13:30:50.885Z,1020.65
2016-11-13T13:32:00.200Z,1020.66
2016-11-13T13:33:09.529Z,1020.69
2016-11-13T13:34:18.520Z,1020.67
2016-11-13T13:35:27.853Z,1020.72
2016-11-13T13:36:36.589Z,1020.74
2016-11-13T13:37:46.053Z,1020.72
2016-11-13T13:38:55.267Z,1020.75
2016-11-13T13:40:03.965Z,1020.72
2016-11-13T13:41:13.359Z,1020.77
2016-11-13T13:42:22.056Z,1020.81
2016-11-13T13:43:31.066Z,1020.83
2016-11-13T13:44:39.773Z,1020.9
2016-11-13T13:45:48.801Z,1020.89
2016-11-13T13:46:57.807Z,1020.91
2016-11-13T13:48:06.816Z,1020.93
2016-11-13T13:49:16.022Z,1020.97
2016-11-13T13:50:25.024Z,1020.96
2016-11-13T13:51:34.329Z,1020.94
2016-11-13T13:52:43.958Z,1020.99
2016-11-13T13:53:52.644Z,1020.97
2016-11-13T13:55:01.969Z,1021.01
2016-11-13T13:56:11.317Z,1020.96
2016-11-13T13:57:20.627Z,1020.96